sensor_id;sensor_type;location;lat;lon;timestamp;pressure;altitude;pressure_sealevel;temperature;humidity
28004;BME280;15330;51.234;6.754;2024-01-07T00:00:16;101219.00;;;3.07;89.51
28004;BME280;15330;51.234;6.754;2024-01-07T00:02:42;101224.00;;;3.13;89.00
28004;BME280;15330;51.234;6.754;2024-01-07T00:05:07;101222.34;;;2.93;89.74
28004;BME280;15330;51.234;6.754;2024-01-07T00:07:33;101224.13;;;2.93;89.63
28004;BME280;15330;51.234;6.754;2024-01-07T00:09:58;101227.63;;;2.74;89.86
28004;BME280;15330;51.234;6.754;2024-01-07T00:12:24;101229.34;;;2.75;89.83
28004;BME280;15330;51.234;6.754;2024-01-07T00:14:50;101229.19;;;2.60;90.24
28004;BME280;15330;51.234;6.754;2024-01-07T00:17:16;101234.47;;;2.78;90.03
28004;BME280;15330;51.234;6.754;2024-01-07T00:19:41;101239.31;;;2.50;90.92
28004;BME280;15330;51.234;6.754;2024-01-07T00:22:07;101231.06;;;2.76;90.47
28004;BME280;15330;51.234;6.754;2024-01-07T00:24:32;101240.69;;;2.40;90.99
28004;BME280;15330;51.234;6.754;2024-01-07T00:26:57;101240.66;;;2.60;90.81
28004;BME280;15330;51.234;6.754;2024-01-07T00:29:23;101243.63;;;2.71;90.61
28004;BME280;15330;51.234;6.754;2024-01-07T00:31:48;101241.06;;;2.70;90.11
28004;BME280;15330;51.234;6.754;2024-01-07T00:34:14;101238.19;;;2.74;89.78
28004;BME280;15330;51.234;6.754;2024-01-07T00:36:39;101250.28;;;2.61;90.89
28004;BME280;15330;51.234;6.754;2024-01-07T00:39:05;101241.50;;;2.61;90.45
28004;BME280;15330;51.234;6.754;2024-01-07T00:41:31;101247.34;;;2.67;91.08
28004;BME280;15330;51.234;6.754;2024-01-07T00:43:56;101249.69;;;2.36;92.08
28004;BME280;15330;51.234;6.754;2024-01-07T00:46:22;101247.94;;;2.74;91.14
28004;BME280;15330;51.234;6.754;2024-01-07T00:48:47;101251.03;;;2.63;90.73
28004;BME280;15330;51.234;6.754;2024-01-07T00:51:12;101250.91;;;2.66;91.32
28004;BME280;15330;51.234;6.754;2024-01-07T00:53:38;101252.38;;;2.73;91.22
28004;BME280;15330;51.234;6.754;2024-01-07T00:56:04;101249.91;;;2.50;91.86
28004;BME280;15330;51.234;6.754;2024-01-07T00:58:29;101259.56;;;2.70;91.33
28004;BME280;15330;51.234;6.754;2024-01-07T01:00:55;101254.56;;;2.24;91.96
28004;BME280;15330;51.234;6.754;2024-01-07T01:03:20;101264.72;;;2.33;92.21
28004;BME280;15330;51.234;6.754;2024-01-07T01:05:46;101262.00;;;2.16;92.60
28004;BME280;15330;51.234;6.754;2024-01-07T01:08:11;101256.63;;;2.38;91.54
28004;BME280;15330;51.234;6.754;2024-01-07T01:10:37;101264.72;;;2.33;91.79
28004;BME280;15330;51.234;6.754;2024-01-07T01:13:02;101264.69;;;2.35;91.55
28004;BME280;15330;51.234;6.754;2024-01-07T01:15:28;101264.47;;;2.40;91.11
28004;BME280;15330;51.234;6.754;2024-01-07T01:17:53;101265.44;;;2.37;90.31
28004;BME280;15330;51.234;6.754;2024-01-07T01:20:19;101267.22;;;2.37;90.59
28004;BME280;15330;51.234;6.754;2024-01-07T01:22:44;101280.97;;;2.24;90.83
28004;BME280;15330;51.234;6.754;2024-01-07T01:25:09;101282.59;;;2.28;90.98
28004;BME280;15330;51.234;6.754;2024-01-07T01:27:35;101285.88;;;2.33;90.81
28004;BME280;15330;51.234;6.754;2024-01-07T01:30:00;101284.81;;;2.17;91.76
28004;BME280;15330;51.234;6.754;2024-01-07T01:32:26;101287.41;;;2.19;91.52
28004;BME280;15330;51.234;6.754;2024-01-07T01:34:51;101289.81;;;2.44;90.41
28004;BME280;15330;51.234;6.754;2024-01-07T01:37:17;101292.84;;;2.16;91.43
28004;BME280;15330;51.234;6.754;2024-01-07T01:39:42;101291.63;;;2.62;90.35
28004;BME280;15330;51.234;6.754;2024-01-07T01:42:07;101298.31;;;2.31;90.65
28004;BME280;15330;51.234;6.754;2024-01-07T01:44:33;101300.22;;;2.07;91.84
28004;BME280;15330;51.234;6.754;2024-01-07T01:46:59;101312.56;;;2.07;92.17
28004;BME280;15330;51.234;6.754;2024-01-07T01:49:26;101300.59;;;2.39;90.28
28004;BME280;15330;51.234;6.754;2024-01-07T01:51:52;101306.72;;;2.40;89.95
28004;BME280;15330;51.234;6.754;2024-01-07T01:54:20;101304.06;;;2.60;89.81
28004;BME280;15330;51.234;6.754;2024-01-07T01:56:47;101301.94;;;2.68;88.87
28004;BME280;15330;51.234;6.754;2024-01-07T01:59:14;101306.72;;;2.40;90.46
28004;BME280;15330;51.234;6.754;2024-01-07T02:01:40;101294.53;;;2.56;89.78
28004;BME280;15330;51.234;6.754;2024-01-07T02:04:05;101299.69;;;2.59;89.39
28004;BME280;15330;51.234;6.754;2024-01-07T02:06:31;101313.31;;;2.50;89.46
28004;BME280;15330;51.234;6.754;2024-01-07T02:08:56;101302.84;;;2.48;89.91
28004;BME280;15330;51.234;6.754;2024-01-07T02:11:22;101319.56;;;2.28;90.53
28004;BME280;15330;51.234;6.754;2024-01-07T02:13:48;101314.59;;;2.41;90.43
28004;BME280;15330;51.234;6.754;2024-01-07T02:16:14;101318.81;;;2.45;90.18
28004;BME280;15330;51.234;6.754;2024-01-07T02:18:41;101321.19;;;2.51;89.96
28004;BME280;15330;51.234;6.754;2024-01-07T02:21:08;101321.13;;;1.92;91.21
28004;BME280;15330;51.234;6.754;2024-01-07T02:23:34;101332.38;;;2.17;90.36
28004;BME280;15330;51.234;6.754;2024-01-07T02:25:59;101329.84;;;2.14;90.74
28004;BME280;15330;51.234;6.754;2024-01-07T02:28:24;101328.53;;;2.24;90.49
28004;BME280;15330;51.234;6.754;2024-01-07T02:30:50;101331.00;;;2.29;90.12
28004;BME280;15330;51.234;6.754;2024-01-07T02:33:15;101334.50;;;2.09;90.20
28004;BME280;15330;51.234;6.754;2024-01-07T02:35:41;101337.25;;;2.06;90.46
28004;BME280;15330;51.234;6.754;2024-01-07T02:38:06;101343.06;;;1.94;90.85
28004;BME280;15330;51.234;6.754;2024-01-07T02:40:31;101340.09;;;2.01;90.28
28004;BME280;15330;51.234;6.754;2024-01-07T02:42:57;101338.25;;;2.24;90.17
28004;BME280;15330;51.234;6.754;2024-01-07T02:45:23;101340.75;;;2.06;90.57
28004;BME280;15330;51.234;6.754;2024-01-07T02:47:49;101343.44;;;1.84;91.14
28004;BME280;15330;51.234;6.754;2024-01-07T02:50:14;101354.94;;;1.83;91.28
28004;BME280;15330;51.234;6.754;2024-01-07T02:52:41;101351.38;;;2.05;90.79
28004;BME280;15330;51.234;6.754;2024-01-07T02:55:07;101354.94;;;2.24;89.52
28004;BME280;15330;51.234;6.754;2024-01-07T02:57:32;101353.28;;;2.63;88.54
28004;BME280;15330;51.234;6.754;2024-01-07T02:59:58;101363.13;;;1.98;90.40
28004;BME280;15330;51.234;6.754;2024-01-07T03:02:23;101361.41;;;1.97;90.59
28004;BME280;15330;51.234;6.754;2024-01-07T03:04:49;101365.13;;;2.13;90.27
28004;BME280;15330;51.234;6.754;2024-01-07T03:07:14;101364.47;;;2.28;89.46
28004;BME280;15330;51.234;6.754;2024-01-07T03:09:39;101370.41;;;2.33;89.25
28004;BME280;15330;51.234;6.754;2024-01-07T03:12:05;101375.13;;;2.05;90.40
28004;BME280;15330;51.234;6.754;2024-01-07T03:14:30;101375.34;;;2.00;91.30
28004;BME280;15330;51.234;6.754;2024-01-07T03:16:56;101379.22;;;1.92;91.42
28004;BME280;15330;51.234;6.754;2024-01-07T03:19:21;101376.56;;;1.92;91.21
28004;BME280;15330;51.234;6.754;2024-01-07T03:21:48;101384.81;;;2.26;90.06
28004;BME280;15330;51.234;6.754;2024-01-07T03:24:14;101381.69;;;1.74;91.31
28004;BME280;15330;51.234;6.754;2024-01-07T03:26:39;101380.16;;;2.11;90.68
28004;BME280;15330;51.234;6.754;2024-01-07T03:29:04;101385.66;;;2.06;90.73
28004;BME280;15330;51.234;6.754;2024-01-07T03:31:30;101390.25;;;1.79;92.53
28004;BME280;15330;51.234;6.754;2024-01-07T03:33:55;101384.69;;;1.87;91.49
28004;BME280;15330;51.234;6.754;2024-01-07T03:36:21;101383.28;;;1.78;91.54
28004;BME280;15330;51.234;6.754;2024-01-07T03:38:47;101386.16;;;1.94;91.08
28004;BME280;15330;51.234;6.754;2024-01-07T03:41:19;101375.97;;;1.85;90.65
28004;BME280;15330;51.234;6.754;2024-01-07T03:43:49;101385.53;;;1.88;90.09
28004;BME280;15330;51.234;6.754;2024-01-07T03:46:15;101380.13;;;1.91;90.69
28004;BME280;15330;51.234;6.754;2024-01-07T03:48:41;101386.19;;;2.15;89.85
28004;BME280;15330;51.234;6.754;2024-01-07T03:51:07;101382.03;;;2.09;89.06
28004;BME280;15330;51.234;6.754;2024-01-07T03:53:33;101382.59;;;1.73;89.98
28004;BME280;15330;51.234;6.754;2024-01-07T03:55:58;101387.44;;;1.62;90.14
28004;BME280;15330;51.234;6.754;2024-01-07T03:58:23;101393.59;;;1.84;89.82
28004;BME280;15330;51.234;6.754;2024-01-07T04:00:49;101388.19;;;1.88;89.41
28004;BME280;15330;51.234;6.754;2024-01-07T04:03:14;101391.88;;;1.83;88.52
28004;BME280;15330;51.234;6.754;2024-01-07T04:05:40;101393.72;;;1.81;88.93
28004;BME280;15330;51.234;6.754;2024-01-07T04:08:05;101391.34;;;1.96;88.95
28004;BME280;15330;51.234;6.754;2024-01-07T04:10:31;101392.00;;;2.23;88.16
28004;BME280;15330;51.234;6.754;2024-01-07T04:12:56;101393.88;;;1.99;89.03
28004;BME280;15330;51.234;6.754;2024-01-07T04:15:22;101405.50;;;1.95;88.89
28004;BME280;15330;51.234;6.754;2024-01-07T04:17:47;101400.41;;;1.90;89.54
28004;BME280;15330;51.234;6.754;2024-01-07T04:20:13;101406.28;;;1.97;88.61
28004;BME280;15330;51.234;6.754;2024-01-07T04:22:39;101417.66;;;1.77;89.38
28004;BME280;15330;51.234;6.754;2024-01-07T04:25:05;101405.97;;;1.60;89.74
28004;BME280;15330;51.234;6.754;2024-01-07T04:27:37;101413.13;;;1.80;89.03
28004;BME280;15330;51.234;6.754;2024-01-07T04:30:04;101412.50;;;1.74;88.97
28004;BME280;15330;51.234;6.754;2024-01-07T04:32:29;101413.88;;;1.60;89.76
28004;BME280;15330;51.234;6.754;2024-01-07T04:34:55;101415.88;;;1.55;89.24
28004;BME280;15330;51.234;6.754;2024-01-07T04:37:22;101424.22;;;1.67;89.53
28004;BME280;15330;51.234;6.754;2024-01-07T04:39:47;101430.34;;;1.45;89.67
28004;BME280;15330;51.234;6.754;2024-01-07T04:42:13;101434.84;;;1.65;89.43
28004;BME280;15330;51.234;6.754;2024-01-07T04:44:38;101426.56;;;1.51;89.12
28004;BME280;15330;51.234;6.754;2024-01-07T04:47:03;101433.25;;;1.37;89.87
28004;BME280;15330;51.234;6.754;2024-01-07T04:49:29;101438.28;;;1.44;89.56
28004;BME280;15330;51.234;6.754;2024-01-07T04:51:54;101443.19;;;1.54;89.29
28004;BME280;15330;51.234;6.754;2024-01-07T04:54:20;101440.84;;;1.69;89.46
28004;BME280;15330;51.234;6.754;2024-01-07T04:56:45;101444.41;;;1.68;89.50
28004;BME280;15330;51.234;6.754;2024-01-07T04:59:10;101442.94;;;1.82;89.14
28004;BME280;15330;51.234;6.754;2024-01-07T05:01:36;101448.41;;;1.78;88.90
28004;BME280;15330;51.234;6.754;2024-01-07T05:04:02;101452.72;;;1.35;89.71
28004;BME280;15330;51.234;6.754;2024-01-07T05:06:27;101449.88;;;1.39;89.68
28004;BME280;15330;51.234;6.754;2024-01-07T05:08:52;101458.84;;;1.81;88.81
28004;BME280;15330;51.234;6.754;2024-01-07T05:11:18;101456.03;;;1.85;88.43
28004;BME280;15330;51.234;6.754;2024-01-07T05:13:43;101462.22;;;1.84;88.49
28004;BME280;15330;51.234;6.754;2024-01-07T05:16:09;101463.91;;;2.09;87.67
28004;BME280;15330;51.234;6.754;2024-01-07T05:18:34;101468.63;;;2.43;86.58
28004;BME280;15330;51.234;6.754;2024-01-07T05:20:59;101472.44;;;1.94;87.75
28004;BME280;15330;51.234;6.754;2024-01-07T05:23:25;101470.53;;;1.52;89.28
28004;BME280;15330;51.234;6.754;2024-01-07T05:25:50;101477.50;;;1.76;88.31
28004;BME280;15330;51.234;6.754;2024-01-07T05:28:16;101475.03;;;1.72;88.32
28004;BME280;15330;51.234;6.754;2024-01-07T05:30:45;101487.63;;;1.42;89.27
28004;BME280;15330;51.234;6.754;2024-01-07T05:33:10;101486.00;;;1.37;89.22
28004;BME280;15330;51.234;6.754;2024-01-07T05:35:35;101489.50;;;1.38;89.03
28004;BME280;15330;51.234;6.754;2024-01-07T05:38:01;101495.78;;;1.35;88.96
28004;BME280;15330;51.234;6.754;2024-01-07T05:40:26;101493.69;;;1.44;89.33
28004;BME280;15330;51.234;6.754;2024-01-07T05:42:52;101498.72;;;1.51;88.47
28004;BME280;15330;51.234;6.754;2024-01-07T05:45:17;101494.75;;;1.39;88.96
28004;BME280;15330;51.234;6.754;2024-01-07T05:47:43;101495.38;;;1.23;89.53
28004;BME280;15330;51.234;6.754;2024-01-07T05:50:08;101509.22;;;1.28;89.47
28004;BME280;15330;51.234;6.754;2024-01-07T05:52:34;101506.75;;;1.23;89.54
28004;BME280;15330;51.234;6.754;2024-01-07T05:54:59;101509.06;;;1.56;88.56
28004;BME280;15330;51.234;6.754;2024-01-07T05:57:25;101519.97;;;1.47;88.19
28004;BME280;15330;51.234;6.754;2024-01-07T05:59:50;101515.81;;;1.16;89.33
28004;BME280;15330;51.234;6.754;2024-01-07T06:02:17;101515.44;;;1.27;88.35
28004;BME280;15330;51.234;6.754;2024-01-07T06:04:42;101509.41;;;1.23;88.18
28004;BME280;15330;51.234;6.754;2024-01-07T06:07:08;101523.75;;;1.39;87.73
28004;BME280;15330;51.234;6.754;2024-01-07T06:09:34;101526.16;;;1.22;88.33
28004;BME280;15330;51.234;6.754;2024-01-07T06:11:59;101524.78;;;1.35;87.83
28004;BME280;15330;51.234;6.754;2024-01-07T06:14:24;101532.38;;;1.20;88.42
28004;BME280;15330;51.234;6.754;2024-01-07T06:16:50;101525.53;;;1.39;88.54
28004;BME280;15330;51.234;6.754;2024-01-07T06:19:16;101538.66;;;1.15;88.86
28004;BME280;15330;51.234;6.754;2024-01-07T06:21:42;101535.81;;;1.22;89.08
28004;BME280;15330;51.234;6.754;2024-01-07T06:24:07;101539.34;;;1.22;89.16
28004;BME280;15330;51.234;6.754;2024-01-07T06:26:33;101547.13;;;1.25;88.26
28004;BME280;15330;51.234;6.754;2024-01-07T06:28:58;101545.81;;;1.12;88.96
28004;BME280;15330;51.234;6.754;2024-01-07T06:31:24;101561.22;;;0.99;90.14
28004;BME280;15330;51.234;6.754;2024-01-07T06:33:50;101563.09;;;0.96;90.00
28004;BME280;15330;51.234;6.754;2024-01-07T06:36:15;101559.13;;;1.09;88.84
28004;BME280;15330;51.234;6.754;2024-01-07T06:38:40;101565.94;;;1.16;88.74
28004;BME280;15330;51.234;6.754;2024-01-07T06:41:06;101567.38;;;1.00;89.55
28004;BME280;15330;51.234;6.754;2024-01-07T06:43:32;101560.69;;;1.14;89.00
28004;BME280;15330;51.234;6.754;2024-01-07T06:45:57;101573.63;;;1.22;88.51
28004;BME280;15330;51.234;6.754;2024-01-07T06:48:22;101576.09;;;1.52;88.34
28004;BME280;15330;51.234;6.754;2024-01-07T06:50:48;101590.66;;;1.37;87.80
28004;BME280;15330;51.234;6.754;2024-01-07T06:53:13;101579.34;;;1.58;87.10
28004;BME280;15330;51.234;6.754;2024-01-07T06:55:39;101579.28;;;2.07;85.67
28004;BME280;15330;51.234;6.754;2024-01-07T06:58:04;101584.63;;;2.51;84.01
28004;BME280;15330;51.234;6.754;2024-01-07T07:00:30;101604.38;;;2.19;84.26
28004;BME280;15330;51.234;6.754;2024-01-07T07:02:55;101603.91;;;1.60;85.19
28004;BME280;15330;51.234;6.754;2024-01-07T07:05:20;101609.88;;;1.40;86.13
28004;BME280;15330;51.234;6.754;2024-01-07T07:07:46;101607.19;;;1.67;85.29
28004;BME280;15330;51.234;6.754;2024-01-07T07:10:11;101604.38;;;1.72;85.72
28004;BME280;15330;51.234;6.754;2024-01-07T07:12:36;101615.81;;;2.19;83.75
28004;BME280;15330;51.234;6.754;2024-01-07T07:15:02;101618.94;;;1.58;85.21
28004;BME280;15330;51.234;6.754;2024-01-07T07:17:27;101618.63;;;1.43;85.19
28004;BME280;15330;51.234;6.754;2024-01-07T07:19:53;101616.38;;;1.32;86.44
28004;BME280;15330;51.234;6.754;2024-01-07T07:22:18;101619.22;;;1.99;84.11
28004;BME280;15330;51.234;6.754;2024-01-07T07:24:43;101621.88;;;2.67;82.43
28004;BME280;15330;51.234;6.754;2024-01-07T07:27:09;101637.09;;;1.91;83.73
28004;BME280;15330;51.234;6.754;2024-01-07T07:29:34;101640.50;;;1.70;84.18
28004;BME280;15330;51.234;6.754;2024-01-07T07:32:00;101638.16;;;1.87;84.59
28004;BME280;15330;51.234;6.754;2024-01-07T07:34:25;101653.72;;;1.70;84.66
28004;BME280;15330;51.234;6.754;2024-01-07T07:36:50;101653.13;;;1.36;85.35
28004;BME280;15330;51.234;6.754;2024-01-07T07:39:16;101649.25;;;1.47;85.49
28004;BME280;15330;51.234;6.754;2024-01-07T07:41:42;101660.66;;;1.72;85.56
28004;BME280;15330;51.234;6.754;2024-01-07T07:44:07;101662.03;;;1.59;84.79
28004;BME280;15330;51.234;6.754;2024-01-07T07:46:33;101672.25;;;1.43;85.06
28004;BME280;15330;51.234;6.754;2024-01-07T07:48:58;101670.06;;;1.03;86.49
28004;BME280;15330;51.234;6.754;2024-01-07T07:51:24;101672.66;;;1.31;86.53
28004;BME280;15330;51.234;6.754;2024-01-07T07:53:49;101681.31;;;1.09;86.88
28004;BME280;15330;51.234;6.754;2024-01-07T07:56:15;101687.81;;;1.24;86.26
28004;BME280;15330;51.234;6.754;2024-01-07T07:58:40;101689.81;;;1.17;86.79
28004;BME280;15330;51.234;6.754;2024-01-07T08:01:05;101689.78;;;0.91;87.61
28004;BME280;15330;51.234;6.754;2024-01-07T08:03:32;101693.78;;;1.03;87.18
28004;BME280;15330;51.234;6.754;2024-01-07T08:05:58;101698.38;;;1.24;86.79
28004;BME280;15330;51.234;6.754;2024-01-07T08:08:23;101703.75;;;0.95;88.15
28004;BME280;15330;51.234;6.754;2024-01-07T08:10:48;101705.47;;;0.96;87.79
28004;BME280;15330;51.234;6.754;2024-01-07T08:13:14;101707.78;;;1.06;86.97
28004;BME280;15330;51.234;6.754;2024-01-07T08:15:39;101716.00;;;0.96;87.42
28004;BME280;15330;51.234;6.754;2024-01-07T08:18:05;101716.81;;;0.98;87.74
28004;BME280;15330;51.234;6.754;2024-01-07T08:20:30;101731.41;;;0.81;87.41
28004;BME280;15330;51.234;6.754;2024-01-07T08:22:56;101732.59;;;0.71;88.63
28004;BME280;15330;51.234;6.754;2024-01-07T08:25:21;101724.34;;;1.10;86.84
28004;BME280;15330;51.234;6.754;2024-01-07T08:27:48;101739.97;;;0.88;87.12
28004;BME280;15330;51.234;6.754;2024-01-07T08:30:13;101741.75;;;0.87;87.48
28004;BME280;15330;51.234;6.754;2024-01-07T08:32:39;101736.59;;;0.83;87.29
28004;BME280;15330;51.234;6.754;2024-01-07T08:35:05;101735.03;;;1.05;87.17
28004;BME280;15330;51.234;6.754;2024-01-07T08:37:30;101738.69;;;1.01;86.61
28004;BME280;15330;51.234;6.754;2024-01-07T08:39:56;101741.16;;;1.06;86.57
28004;BME280;15330;51.234;6.754;2024-01-07T08:42:21;101740.59;;;0.96;86.24
28004;BME280;15330;51.234;6.754;2024-01-07T08:44:47;101753.00;;;0.92;86.25
28004;BME280;15330;51.234;6.754;2024-01-07T08:47:12;101753.44;;;1.07;85.93
28004;BME280;15330;51.234;6.754;2024-01-07T08:49:38;101760.81;;;0.96;86.66
28004;BME280;15330;51.234;6.754;2024-01-07T08:52:04;101766.00;;;0.99;86.36
28004;BME280;15330;51.234;6.754;2024-01-07T08:54:30;101764.31;;;1.24;85.30
28004;BME280;15330;51.234;6.754;2024-01-07T08:56:55;101775.34;;;1.09;85.25
28004;BME280;15330;51.234;6.754;2024-01-07T08:59:20;101771.91;;;1.07;85.36
28004;BME280;15330;51.234;6.754;2024-01-07T09:01:46;101778.16;;;1.03;85.22
28004;BME280;15330;51.234;6.754;2024-01-07T09:04:11;101784.72;;;0.89;85.71
28004;BME280;15330;51.234;6.754;2024-01-07T09:06:37;101786.13;;;1.01;84.82
28004;BME280;15330;51.234;6.754;2024-01-07T09:09:02;101781.38;;;0.84;85.21
28004;BME280;15330;51.234;6.754;2024-01-07T09:11:31;101783.75;;;0.93;84.55
28004;BME280;15330;51.234;6.754;2024-01-07T09:13:57;101788.94;;;0.97;84.16
28004;BME280;15330;51.234;6.754;2024-01-07T09:16:22;101787.44;;;0.88;84.32
28004;BME280;15330;51.234;6.754;2024-01-07T09:18:48;101803.19;;;0.89;84.94
28004;BME280;15330;51.234;6.754;2024-01-07T09:21:13;101789.38;;;0.81;85.04
28004;BME280;15330;51.234;6.754;2024-01-07T09:23:39;101796.19;;;0.88;84.91
28004;BME280;15330;51.234;6.754;2024-01-07T09:26:04;101796.56;;;0.76;84.16
28004;BME280;15330;51.234;6.754;2024-01-07T09:28:30;101798.66;;;0.65;83.68
28004;BME280;15330;51.234;6.754;2024-01-07T09:30:58;101800.59;;;1.44;86.34
28004;BME280;15330;51.234;6.754;2024-01-07T09:33:24;101807.13;;;1.87;86.02
28004;BME280;15330;51.234;6.754;2024-01-07T09:35:52;101808.56;;;1.96;83.62
28004;BME280;15330;51.234;6.754;2024-01-07T09:38:19;101806.75;;;1.98;82.56
28004;BME280;15330;51.234;6.754;2024-01-07T09:40:44;101807.53;;;1.75;81.52
28004;BME280;15330;51.234;6.754;2024-01-07T09:43:10;101809.16;;;1.24;82.25
28004;BME280;15330;51.234;6.754;2024-01-07T09:45:41;101816.69;;;1.36;81.79
28004;BME280;15330;51.234;6.754;2024-01-07T09:48:07;101820.53;;;1.26;81.71
28004;BME280;15330;51.234;6.754;2024-01-07T09:50:32;101813.16;;;1.09;82.39
28004;BME280;15330;51.234;6.754;2024-01-07T09:52:58;101821.91;;;1.10;82.54
28004;BME280;15330;51.234;6.754;2024-01-07T09:55:33;101826.03;;;1.19;82.06
28004;BME280;15330;51.234;6.754;2024-01-07T09:57:58;101830.91;;;1.03;82.22
28004;BME280;15330;51.234;6.754;2024-01-07T10:00:28;101836.53;;;1.20;82.59
28004;BME280;15330;51.234;6.754;2024-01-07T10:02:54;101840.16;;;0.88;82.32
28004;BME280;15330;51.234;6.754;2024-01-07T10:05:20;101840.41;;;0.79;82.59
28004;BME280;15330;51.234;6.754;2024-01-07T10:07:45;101840.66;;;0.71;82.39
28004;BME280;15330;51.234;6.754;2024-01-07T10:10:15;101840.25;;;0.85;82.36
28004;BME280;15330;51.234;6.754;2024-01-07T10:12:44;101839.91;;;0.96;82.15
28004;BME280;15330;51.234;6.754;2024-01-07T10:15:10;101842.69;;;0.91;82.72
28004;BME280;15330;51.234;6.754;2024-01-07T10:17:35;101842.97;;;0.82;82.55
28004;BME280;15330;51.234;6.754;2024-01-07T10:20:01;101851.88;;;0.78;82.50
28004;BME280;15330;51.234;6.754;2024-01-07T10:22:27;101852.13;;;0.68;83.03
28004;BME280;15330;51.234;6.754;2024-01-07T10:24:52;101853.84;;;0.99;81.76
28004;BME280;15330;51.234;6.754;2024-01-07T10:27:17;101854.19;;;0.88;82.21
28004;BME280;15330;51.234;6.754;2024-01-07T10:29:43;101856.72;;;0.91;81.99
28004;BME280;15330;51.234;6.754;2024-01-07T10:32:08;101852.72;;;0.78;82.37
28004;BME280;15330;51.234;6.754;2024-01-07T10:34:35;101857.66;;;0.90;82.32
28004;BME280;15330;51.234;6.754;2024-01-07T10:37:03;101868.19;;;0.90;81.95
28004;BME280;15330;51.234;6.754;2024-01-07T10:39:30;101856.81;;;0.88;82.28
28004;BME280;15330;51.234;6.754;2024-01-07T10:41:56;101866.66;;;1.13;81.83
28004;BME280;15330;51.234;6.754;2024-01-07T10:44:26;101866.34;;;0.92;81.88
28004;BME280;15330;51.234;6.754;2024-01-07T10:46:55;101864.00;;;0.83;82.16
28004;BME280;15330;51.234;6.754;2024-01-07T10:49:25;101858.34;;;0.97;82.06
28004;BME280;15330;51.234;6.754;2024-01-07T10:52:11;101857.91;;;0.81;81.49
28004;BME280;15330;51.234;6.754;2024-01-07T10:54:37;101870.19;;;0.82;81.62
28004;BME280;15330;51.234;6.754;2024-01-07T10:59:40;101870.25;;;0.79;81.46
28004;BME280;15330;51.234;6.754;2024-01-07T11:02:07;101879.81;;;0.83;81.69
28004;BME280;15330;51.234;6.754;2024-01-07T11:04:45;101867.63;;;1.09;81.70
28004;BME280;15330;51.234;6.754;2024-01-07T11:07:32;101877.41;;;1.05;81.44
28004;BME280;15330;51.234;6.754;2024-01-07T11:10:25;101879.09;;;0.78;80.95
28004;BME280;15330;51.234;6.754;2024-01-07T11:12:56;101869.41;;;0.79;81.79
28004;BME280;15330;51.234;6.754;2024-01-07T11:18:18;101883.84;;;0.65;81.31
28004;BME280;15330;51.234;6.754;2024-01-07T11:20:48;101878.00;;;0.85;80.83
28004;BME280;15330;51.234;6.754;2024-01-07T11:23:32;101888.19;;;0.98;80.38
28004;BME280;15330;51.234;6.754;2024-01-07T11:26:01;101887.63;;;0.86;80.67
28004;BME280;15330;51.234;6.754;2024-01-07T11:28:49;101890.31;;;1.16;81.31
28004;BME280;15330;51.234;6.754;2024-01-07T11:31:16;101892.56;;;0.99;81.23
28004;BME280;15330;51.234;6.754;2024-01-07T11:33:46;101895.50;;;0.88;80.54
28004;BME280;15330;51.234;6.754;2024-01-07T11:36:13;101893.38;;;1.01;79.75
28004;BME280;15330;51.234;6.754;2024-01-07T11:38:47;101890.22;;;1.19;82.57
28004;BME280;15330;51.234;6.754;2024-01-07T11:41:14;101894.53;;;1.50;80.66
28004;BME280;15330;51.234;6.754;2024-01-07T11:43:56;101894.72;;;1.44;79.38
28004;BME280;15330;51.234;6.754;2024-01-07T11:46:24;101894.94;;;1.66;79.95
28004;BME280;15330;51.234;6.754;2024-01-07T11:48:53;101901.28;;;1.01;79.73
28004;BME280;15330;51.234;6.754;2024-01-07T11:51:18;101898.47;;;1.07;79.29
28004;BME280;15330;51.234;6.754;2024-01-07T11:53:47;101902.13;;;1.32;78.39
28004;BME280;15330;51.234;6.754;2024-01-07T11:56:13;101909.13;;;1.04;79.13
28004;BME280;15330;51.234;6.754;2024-01-07T11:58:40;101906.94;;;0.56;79.80
28004;BME280;15330;51.234;6.754;2024-01-07T12:01:05;101910.34;;;0.59;80.46
28004;BME280;15330;51.234;6.754;2024-01-07T12:03:31;101907.16;;;0.79;79.74
28004;BME280;15330;51.234;6.754;2024-01-07T12:05:56;101903.19;;;0.96;78.76
28004;BME280;15330;51.234;6.754;2024-01-07T12:08:22;101903.66;;;0.79;80.11
28004;BME280;15330;51.234;6.754;2024-01-07T12:10:47;101911.03;;;0.66;79.46
28004;BME280;15330;51.234;6.754;2024-01-07T12:13:13;101907.50;;;0.67;79.27
28004;BME280;15330;51.234;6.754;2024-01-07T12:15:39;101913.81;;;0.92;78.68
28004;BME280;15330;51.234;6.754;2024-01-07T12:18:04;101915.28;;;1.03;78.10
28004;BME280;15330;51.234;6.754;2024-01-07T12:20:30;101915.25;;;1.04;78.24
28004;BME280;15330;51.234;6.754;2024-01-07T12:23:05;101915.09;;;1.09;77.93
28004;BME280;15330;51.234;6.754;2024-01-07T12:25:30;101918.06;;;0.98;78.30
28004;BME280;15330;51.234;6.754;2024-01-07T12:27:56;101927.44;;;1.08;79.18
28004;BME280;15330;51.234;6.754;2024-01-07T12:30:24;101927.47;;;0.76;78.93
28004;BME280;15330;51.234;6.754;2024-01-07T12:32:51;101934.31;;;1.14;78.41
28004;BME280;15330;51.234;6.754;2024-01-07T12:35:17;101935.69;;;0.96;77.98
28004;BME280;15330;51.234;6.754;2024-01-07T12:37:43;101932.69;;;1.10;77.92
28004;BME280;15330;51.234;6.754;2024-01-07T12:40:10;101941.28;;;1.15;76.67
28004;BME280;15330;51.234;6.754;2024-01-07T12:42:39;101933.75;;;0.70;77.40
28004;BME280;15330;51.234;6.754;2024-01-07T12:45:12;101934.44;;;0.78;77.13
28004;BME280;15330;51.234;6.754;2024-01-07T12:47:41;101945.38;;;0.96;76.50
28004;BME280;15330;51.234;6.754;2024-01-07T12:50:08;101953.66;;;0.82;76.50
28004;BME280;15330;51.234;6.754;2024-01-07T12:52:36;101956.31;;;0.82;76.62
28004;BME280;15330;51.234;6.754;2024-01-07T12:55:02;101954.69;;;0.76;74.01
28004;BME280;15330;51.234;6.754;2024-01-07T12:57:28;101954.75;;;1.06;74.08
28004;BME280;15330;51.234;6.754;2024-01-07T12:59:53;101964.84;;;0.57;73.68